Time;durP1;ratioP1;P1;durP2;ratioP2;P2;SDS_P1;SDS_P2;PMS_P1;PMS_P2;Temp;Humidity;BMP_temperature;BMP_pressure;BME280_temperature;BME280_humidity;BME280_pressure;Samples;Min_cycle;Max_cycle;Signal;HPM_P1;HPM_P2
2023/12/06 00:04:33;;;;;;;149.52;138.43;;;1.50;99.90;;;;;;12503923;28;20521;-79
2023/12/06 00:10:36;;;;;;;146.60;135.50;;;1.60;99.90;;;;;;12635693;28;20060;-78
2023/12/06 00:16:39;;;;;;;153.90;142.30;;;1.50;99.90;;;;;;12638735;28;20047;-78
2023/12/06 00:22:41;;;;;;;149.05;138.07;;;1.50;99.90;;;;;;12641140;28;20052;-78
2023/12/06 00:28:43;;;;;;;152.88;141.40;;;1.50;99.90;;;;;;12641310;28;20052;-79
2023/12/06 00:34:46;;;;;;;151.48;140.25;;;1.50;99.90;;;;;;12640781;28;20060;-79
2023/12/06 00:40:48;;;;;;;146.77;135.93;;;1.60;99.90;;;;;;12627615;28;20063;-79
2023/12/06 00:46:50;;;;;;;147.95;136.80;;;1.60;99.90;;;;;;12594464;28;20059;-79
2023/12/06 00:52:52;;;;;;;143.57;132.88;;;1.60;99.90;;;;;;12598517;28;20056;-79
2023/12/06 00:58:54;;;;;;;142.27;131.65;;;1.60;99.90;;;;;;12616632;28;20055;-79
2023/12/06 01:04:55;;;;;;;148.25;137.20;;;1.60;99.90;;;;;;12621526;28;20056;-79
2023/12/06 01:10:58;;;;;;;143.68;132.98;;;1.50;99.90;;;;;;12549233;28;20053;-79
2023/12/06 01:16:59;;;;;;;146.25;135.23;;;1.50;99.90;;;;;;12498106;28;20050;-79
2023/12/06 01:23:01;;;;;;;144.50;133.70;;;1.40;99.90;;;;;;12425812;28;20062;-80
2023/12/06 01:29:07;;;;;;;138.30;128.00;;;1.40;99.90;;;;;;12412472;28;20058;-78
2023/12/06 01:35:09;;;;;;;140.45;129.77;;;1.40;99.90;;;;;;12413898;28;20103;-79
2023/12/06 01:41:12;;;;;;;140.95;130.50;;;1.30;99.90;;;;;;12459610;28;20064;-80
2023/12/06 01:47:18;;;;;;;138.50;127.95;;;1.30;99.90;;;;;;12488663;28;20050;-78
2023/12/06 01:53:21;;;;;;;134.70;124.50;;;1.30;99.90;;;;;;12423702;28;20133;-80
2023/12/06 01:59:24;;;;;;;132.35;121.63;;;1.30;99.90;;;;;;12473172;28;20042;-80
2023/12/06 02:05:26;;;;;;;131.32;121.25;;;1.20;99.90;;;;;;12423839;28;20047;-78
2023/12/06 02:11:28;;;;;;;132.88;122.57;;;1.20;99.90;;;;;;12495643;28;20050;-78
2023/12/06 02:17:31;;;;;;;136.55;125.97;;;1.20;99.90;;;;;;12419071;28;20116;-78
2023/12/06 02:23:37;;;;;;;139.27;128.60;;;1.20;99.90;;;;;;12471562;28;20072;-78
2023/12/06 02:29:39;;;;;;;140.40;129.57;;;1.20;99.90;;;;;;12486344;28;20063;-79
2023/12/06 02:35:51;;;;;;;137.98;127.22;;;1.10;99.90;;;;;;12485277;28;20183;-78
2023/12/06 02:41:53;;;;;;;141.18;130.35;;;1.10;99.90;;;;;;12478949;28;20124;-78
2023/12/06 02:47:55;;;;;;;136.98;126.22;;;1.00;99.90;;;;;;12477945;28;20183;-79
2023/12/06 02:53:57;;;;;;;133.32;122.68;;;1.10;99.90;;;;;;12425599;28;22178;-78
2023/12/06 02:59:59;;;;;;;141.98;130.77;;;1.10;99.90;;;;;;12446239;28;20049;-79
2023/12/06 03:06:01;;;;;;;138.68;127.30;;;1.10;99.90;;;;;;12421009;28;20175;-78
2023/12/06 03:12:04;;;;;;;137.50;126.53;;;1.00;99.90;;;;;;12461833;28;20057;-79
2023/12/06 03:18:06;;;;;;;132.68;121.80;;;1.00;99.90;;;;;;12410474;28;20460;-79
2023/12/06 03:24:08;;;;;;;129.40;119.10;;;1.00;99.90;;;;;;12502328;28;20060;-78
2023/12/06 03:30:10;;;;;;;134.75;123.80;;;1.00;99.90;;;;;;12405554;28;20492;-78
2023/12/06 03:36:27;;;;;;;138.45;127.40;;;1.00;99.90;;;;;;12458463;28;20058;-78
2023/12/06 03:42:29;;;;;;;138.65;127.45;;;1.10;99.90;;;;;;12391377;28;20065;-78
2023/12/06 03:48:31;;;;;;;139.55;128.02;;;1.00;99.90;;;;;;12480286;28;20419;-77
2023/12/06 03:54:33;;;;;;;137.98;126.65;;;0.90;99.90;;;;;;12490093;28;20868;-77
2023/12/06 04:00:35;;;;;;;141.05;129.52;;;0.90;99.90;;;;;;12477430;28;20061;-77
2023/12/06 04:06:38;;;;;;;138.98;127.68;;;1.00;99.90;;;;;;12486124;28;20058;-77
2023/12/06 04:12:40;;;;;;;140.15;129.00;;;0.90;99.90;;;;;;12492460;28;20078;-77
2023/12/06 04:18:42;;;;;;;137.18;126.18;;;1.00;99.90;;;;;;12471659;28;20475;-77
2023/12/06 04:24:44;;;;;;;133.23;122.50;;;0.90;99.90;;;;;;12477020;28;21653;-77
2023/12/06 04:30:46;;;;;;;133.77;122.93;;;0.90;99.90;;;;;;12419074;28;20387;-77
2023/12/06 04:36:48;;;;;;;128.57;118.07;;;1.00;99.90;;;;;;12455390;28;20491;-78
2023/12/06 04:42:50;;;;;;;126.10;115.60;;;1.00;99.90;;;;;;12549206;28;20061;-77
2023/12/06 04:48:52;;;;;;;125.75;114.95;;;0.90;99.90;;;;;;12505691;28;20424;-78
2023/12/06 04:54:55;;;;;;;121.95;111.80;;;0.90;99.90;;;;;;12468003;28;20085;-77
2023/12/06 05:00:56;;;;;;;116.65;106.70;;;0.80;99.90;;;;;;12401749;28;20050;-78
2023/12/06 05:06:58;;;;;;;113.00;103.45;;;0.90;99.90;;;;;;12407609;28;20184;-78
2023/12/06 05:13:00;;;;;;;116.30;105.85;;;0.90;99.90;;;;;;12487415;28;20053;-77
2023/12/06 05:19:02;;;;;;;114.28;104.68;;;0.80;99.90;;;;;;12475611;28;20457;-77
2023/12/06 05:25:05;;;;;;;116.32;106.32;;;0.90;99.90;;;;;;12404659;28;20058;-78
2023/12/06 05:31:07;;;;;;;117.68;107.60;;;0.90;99.90;;;;;;12486354;28;20416;-77
2023/12/06 05:37:09;;;;;;;116.55;106.47;;;0.80;99.90;;;;;;12404782;28;20054;-76
2023/12/06 05:43:11;;;;;;;114.43;104.00;;;0.80;99.90;;;;;;12401632;28;20042;-77
2023/12/06 05:49:13;;;;;;;114.50;104.45;;;0.80;99.90;;;;;;12498446;28;20054;-77
2023/12/06 05:55:18;;;;;;;109.45;99.45;;;0.70;99.90;;;;;;12406405;28;20122;-77
2023/12/06 06:01:20;;;;;;;;;;;0.70;99.90;;;;;;12488940;28;20140;-77
2023/12/06 06:07:24;;;;;;;119.38;108.97;;;0.80;99.90;;;;;;12468519;28;19965;-78
2023/12/06 06:13:29;;;;;;;128.63;117.38;;;0.80;99.90;;;;;;12410146;28;20053;-77
2023/12/06 06:19:31;;;;;;;135.30;123.28;;;0.80;99.90;;;;;;12420251;28;20046;-77
2023/12/06 06:25:33;;;;;;;134.63;122.80;;;0.80;99.90;;;;;;12406219;28;20479;-76
2023/12/06 06:31:35;;;;;;;135.13;123.35;;;0.80;99.90;;;;;;12467396;28;20050;-76
2023/12/06 06:37:37;;;;;;;132.10;120.85;;;0.90;99.90;;;;;;12501566;28;20042;-76
2023/12/06 06:43:39;;;;;;;133.98;122.38;;;0.80;99.90;;;;;;12487071;28;20492;-76
2023/12/06 06:49:41;;;;;;;133.38;121.75;;;0.70;99.90;;;;;;12457150;28;20049;-78
2023/12/06 06:55:44;;;;;;;131.43;120.03;;;0.70;99.90;;;;;;12476927;28;20077;-79
2023/12/06 07:01:46;;;;;;;138.98;126.13;;;0.70;99.90;;;;;;12478403;28;20061;-77
2023/12/06 07:07:49;;;;;;;136.50;124.30;;;0.80;99.90;;;;;;12481409;28;20046;-79
2023/12/06 07:13:51;;;;;;;134.48;122.28;;;0.60;99.90;;;;;;12411683;28;20092;-76
2023/12/06 07:19:54;;;;;;;139.50;127.38;;;0.70;99.90;;;;;;12407506;28;20390;-77
2023/12/06 07:25:57;;;;;;;146.23;133.30;;;0.70;99.90;;;;;;12422177;28;20461;-76
2023/12/06 07:31:59;;;;;;;140.50;127.72;;;0.60;99.90;;;;;;12528234;28;20053;-76
2023/12/06 07:38:01;;;;;;;137.80;125.07;;;0.60;99.90;;;;;;12472601;28;20069;-77
2023/12/06 07:44:03;;;;;;;138.00;125.28;;;0.60;99.90;;;;;;12394277;28;20061;-79
2023/12/06 07:50:09;;;;;;;137.82;124.90;;;0.50;99.90;;;;;;12487183;28;20414;-76
2023/12/06 07:56:12;;;;;;;135.15;122.47;;;0.50;99.90;;;;;;12458951;28;20095;-77
2023/12/06 08:02:14;;;;;;;134.30;122.07;;;0.50;99.90;;;;;;12473477;28;20042;-77
2023/12/06 08:08:16;;;;;;;137.07;124.60;;;0.50;99.90;;;;;;12489970;28;20045;-78
2023/12/06 08:14:18;;;;;;;130.35;118.63;;;0.50;99.90;;;;;;12432024;28;20057;-77
2023/12/06 08:20:20;;;;;;;129.45;117.45;;;0.50;99.90;;;;;;12487260;28;20054;-77
2023/12/06 08:26:22;;;;;;;122.72;111.07;;;0.60;99.90;;;;;;12476427;28;20050;-77
2023/12/06 08:32:24;;;;;;;125.85;114.05;;;0.60;99.90;;;;;;12414096;28;20046;-77
2023/12/06 08:38:26;;;;;;;120.25;109.32;;;0.60;99.90;;;;;;12487391;28;20523;-79
2023/12/06 08:44:28;;;;;;;119.90;108.50;;;0.80;99.90;;;;;;12474029;28;20492;-77
2023/12/06 08:50:31;;;;;;;122.60;111.03;;;0.80;99.90;;;;;;12470316;28;20084;-77
2023/12/06 08:56:33;;;;;;;123.25;111.90;;;0.80;99.90;;;;;;12512778;28;20054;-77
2023/12/06 09:02:35;;;;;;;123.07;111.55;;;0.80;99.90;;;;;;12511374;28;20082;-77
2023/12/06 09:08:38;;;;;;;126.03;114.25;;;0.90;99.90;;;;;;12495219;28;20420;-78
2023/12/06 09:14:41;;;;;;;124.50;113.60;;;0.90;99.90;;;;;;12491774;28;20050;-77
2023/12/06 09:20:43;;;;;;;129.20;118.00;;;0.90;99.90;;;;;;12478437;28;20058;-77
2023/12/06 09:26:45;;;;;;;139.05;126.63;;;1.00;99.90;;;;;;12498702;28;20080;-77
2023/12/06 09:32:47;;;;;;;128.18;116.50;;;1.00;99.90;;;;;;12497445;28;20046;-78
2023/12/06 09:38:52;;;;;;;125.97;114.90;;;1.00;99.90;;;;;;12432190;28;20199;-78
2023/12/06 09:44:58;;;;;;;134.60;122.30;;;1.20;99.90;;;;;;12483058;28;20051;-78
2023/12/06 09:51:01;;;;;;;132.85;121.50;;;1.20;99.90;;;;;;12483030;28;20065;-77
2023/12/06 09:57:03;;;;;;;138.60;126.85;;;1.30;99.90;;;;;;12409430;28;20054;-78
2023/12/06 10:03:09;;;;;;;134.90;123.10;;;1.20;99.90;;;;;;12491234;28;20112;-77
2023/12/06 10:09:11;;;;;;;131.90;120.38;;;1.20;99.90;;;;;;12528049;28;20068;-80
2023/12/06 10:15:16;;;;;;;133.88;122.28;;;1.10;99.90;;;;;;12483078;28;20145;-78
2023/12/06 10:21:19;;;;;;;;;;;1.10;99.90;;;;;;12427011;28;20073;-79
2023/12/06 10:27:24;;;;;;;131.30;119.88;;;1.20;99.90;;;;;;12466562;28;19926;-78
2023/12/06 10:33:29;;;;;;;130.82;119.65;;;1.20;99.90;;;;;;12490674;28;20050;-77
2023/12/06 10:39:32;;;;;;;129.27;117.93;;;1.20;99.90;;;;;;12420001;28;20050;-78
2023/12/06 10:45:37;;;;;;;133.73;122.32;;;1.20;99.90;;;;;;12479379;28;20433;-77
2023/12/06 10:51:40;;;;;;;;;;;1.20;99.90;;;;;;12502803;28;20064;-77
2023/12/06 10:57:46;;;;;;;126.38;115.68;;;1.20;99.90;;;;;;12501219;28;20378;-77
2023/12/06 11:03:50;;;;;;;124.95;114.80;;;1.10;99.90;;;;;;12430923;28;20060;-77
2023/12/06 11:10:03;;;;;;;129.07;118.83;;;1.10;99.90;;;;;;12490451;28;20069;-77
2023/12/06 11:16:47;;;;;;;121.68;112.03;;;1.20;99.90;;;;;;12416339;28;20061;-77
2023/12/06 11:22:51;;;;;;;122.63;112.88;;;1.30;99.90;;;;;;12417131;28;20046;-77
2023/12/06 11:29:02;;;;;;;123.78;114.18;;;1.40;99.90;;;;;;12479744;28;20056;-78
2023/12/06 11:35:07;;;;;;;124.47;114.70;;;1.50;99.90;;;;;;12486294;28;20045;-77
2023/12/06 11:41:15;;;;;;;121.32;111.68;;;1.50;99.90;;;;;;12516800;28;20053;-78
2023/12/06 11:47:25;;;;;;;120.30;110.38;;;1.50;99.90;;;;;;12484769;28;20449;-77
2023/12/06 11:53:28;;;;;;;118.47;108.88;;;1.50;99.90;;;;;;12502295;28;20064;-77
2023/12/06 11:59:30;;;;;;;128.90;118.70;;;1.40;99.90;;;;;;12414358;28;20049;-78
2023/12/06 12:05:34;;;;;;;127.22;117.10;;;1.50;99.90;;;;;;12425909;28;20046;-79
2023/12/06 12:11:37;;;;;;;133.32;122.85;;;1.50;99.90;;;;;;12459103;28;20056;-77
2023/12/06 12:17:39;;;;;;;134.15;123.55;;;1.50;99.90;;;;;;12499263;28;20058;-78
2023/12/06 12:23:43;;;;;;;145.52;134.10;;;1.50;99.90;;;;;;12488294;28;20569;-78
2023/12/06 12:29:45;;;;;;;152.20;140.50;;;1.40;99.90;;;;;;12480886;28;20082;-79
2023/12/06 12:35:48;;;;;;;146.52;135.38;;;1.40;99.90;;;;;;12409167;28;20057;-78
2023/12/06 12:41:50;;;;;;;151.60;139.80;;;1.50;99.90;;;;;;12473283;28;20538;-78
2023/12/06 12:47:51;;;;;;;154.07;142.38;;;1.40;99.90;;;;;;12434522;28;20047;-81
2023/12/06 12:53:56;;;;;;;148.10;136.82;;;1.50;99.90;;;;;;12511379;28;20065;-78
2023/12/06 12:59:58;;;;;;;154.88;142.88;;;1.60;99.90;;;;;;12520138;28;20030;-79
2023/12/06 13:06:06;;;;;;;160.18;147.80;;;1.60;99.90;;;;;;12527141;28;20148;-78
2023/12/06 13:12:08;;;;;;;167.25;154.40;;;1.60;99.90;;;;;;12425302;28;20042;-77
2023/12/06 13:18:11;;;;;;;173.10;159.80;;;1.50;99.90;;;;;;12494054;28;20046;-78
2023/12/06 13:24:14;;;;;;;176.87;163.43;;;1.50;99.90;;;;;;12434435;28;20107;-80
2023/12/06 13:30:17;;;;;;;176.32;162.82;;;1.50;99.90;;;;;;12494858;28;20050;-78
2023/12/06 13:36:19;;;;;;;181.48;167.68;;;1.50;99.90;;;;;;12533693;28;20033;-79
2023/12/06 13:42:22;;;;;;;176.35;162.85;;;1.40;99.90;;;;;;12475008;28;20060;-81
2023/12/06 13:48:24;;;;;;;172.20;159.32;;;1.40;99.90;;;;;;12551423;28;20044;-80
2023/12/06 13:54:26;;;;;;;188.32;174.50;;;1.50;99.90;;;;;;12562810;28;20060;-79
2023/12/06 14:00:30;;;;;;;197.70;183.32;;;1.60;99.90;;;;;;12530133;28;20050;-79
2023/12/06 14:06:33;;;;;;;220.40;204.50;;;1.60;99.90;;;;;;12475388;28;20127;-80
2023/12/06 14:12:37;;;;;;;207.50;192.13;;;1.60;99.90;;;;;;12474468;28;20057;-79
2023/12/06 14:18:41;;;;;;;229.30;213.10;;;1.60;99.90;;;;;;12472831;28;20054;-78
2023/12/06 14:24:43;;;;;;;222.40;206.57;;;1.50;99.90;;;;;;12496762;28;20072;-77
2023/12/06 14:30:47;;;;;;;214.80;198.93;;;1.50;99.90;;;;;;12513548;28;20676;-77
2023/12/06 14:36:49;;;;;;;218.10;202.23;;;1.60;99.90;;;;;;12518874;28;20065;-77
2023/12/06 14:42:51;;;;;;;218.20;202.38;;;1.50;99.90;;;;;;12502157;28;20114;-77
2023/12/06 14:48:54;;;;;;;210.60;194.57;;;1.60;99.90;;;;;;12504888;28;20050;-79
2023/12/06 14:54:56;;;;;;;204.00;188.73;;;1.50;99.90;;;;;;12487054;28;20423;-78
2023/12/06 15:00:58;;;;;;;203.65;188.57;;;1.60;99.90;;;;;;12506828;28;20050;-79
2023/12/06 15:07:00;;;;;;;206.45;190.95;;;1.70;99.90;;;;;;12503835;28;20058;-78
2023/12/06 15:13:02;;;;;;;192.82;178.45;;;1.70;99.90;;;;;;12485424;28;20056;-78
2023/12/06 15:19:06;;;;;;;202.90;187.90;;;1.80;99.90;;;;;;12542360;28;20054;-78
2023/12/06 15:25:09;;;;;;;207.02;191.80;;;1.80;99.90;;;;;;12508754;28;20045;-78
2023/12/06 15:31:11;;;;;;;198.98;184.13;;;1.90;99.90;;;;;;12477302;28;20050;-78
2023/12/06 15:37:14;;;;;;;197.68;183.02;;;1.90;99.90;;;;;;12487091;28;20046;-79
2023/12/06 15:43:16;;;;;;;198.88;184.05;;;2.00;99.90;;;;;;12465985;28;20058;-79
2023/12/06 15:49:21;;;;;;;197.05;182.65;;;2.00;99.90;;;;;;12485836;28;20472;-78
2023/12/06 15:55:24;;;;;;;185.13;171.30;;;2.00;99.90;;;;;;12509658;28;20047;-78
2023/12/06 16:01:27;;;;;;;186.23;172.30;;;2.00;99.90;;;;;;12424294;28;20069;-79
2023/12/06 16:07:29;;;;;;;184.63;170.82;;;2.00;99.90;;;;;;12422144;28;20062;-79
2023/12/06 16:13:32;;;;;;;177.95;164.65;;;2.00;99.90;;;;;;12493673;28;20038;-79
2023/12/06 16:19:36;;;;;;;169.23;156.13;;;2.10;99.90;;;;;;12498492;28;20058;-78
2023/12/06 16:25:38;;;;;;;182.95;168.88;;;2.10;99.90;;;;;;12489366;28;20078;-78
2023/12/06 16:31:40;;;;;;;177.68;164.27;;;2.20;99.90;;;;;;12475125;28;20077;-78
2023/12/06 16:37:42;;;;;;;186.30;172.27;;;2.10;99.90;;;;;;12508375;28;20184;-79
2023/12/06 16:43:47;;;;;;;186.52;172.70;;;2.20;99.90;;;;;;12507097;28;20068;-78
2023/12/06 16:49:49;;;;;;;195.05;180.23;;;2.20;99.90;;;;;;12494257;28;20109;-78
2023/12/06 16:55:51;;;;;;;193.40;179.13;;;2.20;99.90;;;;;;12486775;28;20046;-78
2023/12/06 17:01:56;;;;;;;187.90;173.88;;;2.20;99.90;;;;;;12478861;28;20185;-78
2023/12/06 17:07:58;;;;;;;191.13;176.90;;;2.30;99.90;;;;;;12499981;28;20141;-78
2023/12/06 17:14:01;;;;;;;200.68;185.70;;;2.20;99.90;;;;;;12484181;28;20050;-78
2023/12/06 17:20:05;;;;;;;197.30;182.40;;;2.30;99.90;;;;;;12500195;28;20061;-78
2023/12/06 17:26:09;;;;;;;201.25;186.50;;;2.30;99.90;;;;;;12406276;28;20066;-78
2023/12/06 17:32:12;;;;;;;200.27;185.50;;;2.30;99.90;;;;;;12424189;28;20046;-78
2023/12/06 17:38:14;;;;;;;196.35;182.00;;;2.30;99.90;;;;;;12428984;28;20073;-78
2023/12/06 17:44:16;;;;;;;184.18;170.40;;;2.30;99.90;;;;;;12401296;28;20151;-78
2023/12/06 17:50:19;;;;;;;188.98;174.82;;;2.40;99.90;;;;;;12483304;28;20046;-78
2023/12/06 17:56:21;;;;;;;186.60;172.82;;;2.40;99.90;;;;;;12445557;28;20054;-78
2023/12/06 18:02:24;;;;;;;196.90;182.30;;;2.40;99.90;;;;;;12495881;28;20049;-77
2023/12/06 18:08:28;;;;;;;180.65;166.93;;;2.30;99.90;;;;;;12483284;28;20069;-78
2023/12/06 18:14:31;;;;;;;;;;;2.40;99.90;;;;;;12483240;28;20049;-77
2023/12/06 18:20:34;;;;;;;172.27;159.00;;;2.40;99.90;;;;;;12489875;28;19940;-78
2023/12/06 18:26:36;;;;;;;172.65;159.52;;;2.40;99.90;;;;;;12523376;28;20070;-78
2023/12/06 18:32:38;;;;;;;174.23;160.63;;;2.50;99.90;;;;;;12502349;28;20042;-78
2023/12/06 18:38:41;;;;;;;169.23;155.95;;;2.50;99.90;;;;;;12485389;28;20515;-78
2023/12/06 18:44:44;;;;;;;171.63;158.05;;;2.50;99.90;;;;;;12494698;28;20062;-78
2023/12/06 18:50:46;;;;;;;171.95;158.88;;;2.50;99.90;;;;;;12479064;28;20054;-78
2023/12/06 18:56:52;;;;;;;182.60;169.15;;;2.50;99.90;;;;;;12485008;28;20042;-78
2023/12/06 19:02:54;;;;;;;178.77;165.27;;;2.50;99.90;;;;;;12479998;28;20050;-78
2023/12/06 19:08:57;;;;;;;176.00;162.20;;;2.50;99.90;;;;;;12407117;28;20512;-78
2023/12/06 19:14:59;;;;;;;176.85;163.52;;;2.50;99.90;;;;;;12483136;28;20042;-78
2023/12/06 19:21:01;;;;;;;167.85;155.13;;;2.60;99.90;;;;;;12417423;28;20057;-79
2023/12/06 19:27:03;;;;;;;174.38;161.00;;;2.50;99.90;;;;;;12496715;28;20065;-80
2023/12/06 19:33:07;;;;;;;173.23;159.75;;;2.60;99.90;;;;;;12511581;28;20058;-78
2023/12/06 19:39:10;;;;;;;;;;;2.60;99.90;;;;;;12436064;28;20048;-79
2023/12/06 19:45:13;;;;;;;174.38;161.32;;;2.60;99.90;;;;;;12473121;28;19921;-79
2023/12/06 19:51:15;;;;;;;177.27;164.13;;;2.60;99.90;;;;;;12492775;28;20064;-78
2023/12/06 19:57:17;;;;;;;177.10;163.70;;;2.50;99.90;;;;;;12427393;28;20102;-79
2023/12/06 20:03:19;;;;;;;181.20;167.65;;;2.70;99.90;;;;;;12532263;28;20058;-79
2023/12/06 20:09:21;;;;;;;179.10;165.57;;;2.70;99.90;;;;;;12513546;28;20075;-79
2023/12/06 20:15:24;;;;;;;184.60;170.95;;;2.60;99.90;;;;;;12475230;28;20069;-81
2023/12/06 20:21:28;;;;;;;183.20;170.07;;;2.60;99.90;;;;;;12537244;28;20038;-79
2023/12/06 20:27:32;;;;;;;189.00;175.20;;;2.70;99.90;;;;;;12458392;28;20043;-78
2023/12/06 20:33:34;;;;;;;191.35;177.45;;;2.70;99.90;;;;;;12526785;28;20046;-79
2023/12/06 20:39:39;;;;;;;181.13;167.63;;;2.80;99.90;;;;;;12524755;28;20077;-79
2023/12/06 20:45:41;;;;;;;184.75;171.15;;;2.80;99.90;;;;;;12542172;28;20075;-80
2023/12/06 20:51:44;;;;;;;189.15;175.50;;;2.70;99.90;;;;;;12540987;28;20037;-79
2023/12/06 20:57:46;;;;;;;185.52;171.38;;;2.70;99.90;;;;;;12532311;28;20128;-80
2023/12/06 21:03:50;;;;;;;197.80;183.45;;;2.70;99.90;;;;;;12479337;28;20059;-79
2023/12/06 21:09:58;;;;;;;196.02;182.07;;;2.70;99.90;;;;;;12492826;28;20137;-78
2023/12/06 21:16:08;;;;;;;192.18;178.27;;;2.70;99.90;;;;;;12477079;28;20050;-77
2023/12/06 21:22:12;;;;;;;186.88;173.40;;;2.70;99.90;;;;;;12491593;28;20050;-78
2023/12/06 21:28:17;;;;;;;190.25;176.13;;;2.70;99.90;;;;;;12483951;28;20059;-77
2023/12/06 21:34:27;;;;;;;178.93;165.68;;;2.70;99.90;;;;;;12473729;28;20046;-77
2023/12/06 21:40:32;;;;;;;180.48;167.10;;;2.70;99.90;;;;;;12504060;28;20042;-77
2023/12/06 21:46:35;;;;;;;168.55;156.02;;;2.70;99.90;;;;;;12487562;28;20122;-77
2023/12/06 21:52:38;;;;;;;170.57;158.00;;;2.70;99.90;;;;;;12502369;28;20058;-76
2023/12/06 21:58:40;;;;;;;172.90;160.05;;;2.70;99.90;;;;;;12441842;28;20054;-77
2023/12/06 22:04:42;;;;;;;167.50;154.90;;;2.70;99.90;;;;;;12508552;28;20480;-79
2023/12/06 22:10:44;;;;;;;169.50;156.65;;;2.70;99.90;;;;;;12493760;28;20065;-77
2023/12/06 22:16:47;;;;;;;171.02;158.27;;;2.70;99.90;;;;;;12497354;28;20051;-76
2023/12/06 22:22:49;;;;;;;165.15;152.50;;;2.60;99.90;;;;;;12420461;28;20052;-78
2023/12/06 22:28:51;;;;;;;171.52;158.85;;;2.60;99.90;;;;;;12477356;28;20055;-78
2023/12/06 22:34:54;;;;;;;170.88;157.90;;;2.70;99.90;;;;;;12419419;28;20061;-77
2023/12/06 22:40:59;;;;;;;172.80;159.60;;;2.70;99.90;;;;;;12413008;28;20050;-76
2023/12/06 22:47:02;;;;;;;170.82;158.10;;;2.70;99.90;;;;;;12413296;28;20053;-78
2023/12/06 22:53:04;;;;;;;167.70;155.20;;;2.80;99.90;;;;;;12509630;28;20068;-77
2023/12/06 22:59:06;;;;;;;167.55;155.13;;;2.80;99.90;;;;;;12466945;28;20113;-77
2023/12/06 23:05:09;;;;;;;170.32;157.73;;;2.80;99.90;;;;;;12477086;28;20058;-77
2023/12/06 23:11:12;;;;;;;170.43;157.82;;;2.70;99.90;;;;;;12487794;28;20054;-77
2023/12/06 23:17:14;;;;;;;166.63;154.30;;;2.60;99.90;;;;;;12413130;28;20042;-77
2023/12/06 23:23:16;;;;;;;160.23;148.13;;;2.80;99.90;;;;;;12521033;28;20050;-77
2023/12/06 23:29:19;;;;;;;162.52;150.48;;;2.80;99.90;;;;;;12479630;28;20050;-78
2023/12/06 23:35:35;;;;;;;158.15;146.32;;;2.90;99.90;;;;;;12503204;28;20063;-78
2023/12/06 23:41:37;;;;;;;157.80;146.10;;;2.80;99.90;;;;;;12476481;28;20515;-77
2023/12/06 23:47:40;;;;;;;158.65;146.90;;;2.80;99.90;;;;;;12491435;28;20050;-78
2023/12/06 23:53:42;;;;;;;155.30;143.40;;;2.90;99.90;;;;;;12481367;28;20125;-77
2023/12/06 23:59:44;;;;;;;154.98;143.63;;;2.90;99.90;;;;;;12491692;28;20061;-77
